createdAt,value
2022-09-04T00:03:01.709Z,100.00
2022-09-04T00:05:53.481Z,100.00
2022-09-04T00:09:01.532Z,100.00
2022-09-04T00:12:08.781Z,100.00
2022-09-04T00:15:07.508Z,100.00
2022-09-04T00:18:08.305Z,100.00
2022-09-04T00:21:30.050Z,100.00
2022-09-04T00:24:20.000Z,100.00
2022-09-04T00:27:13.206Z,100.00
2022-09-04T00:30:07.888Z,100.00
2022-09-04T00:33:10.388Z,100.00
2022-09-04T00:36:02.121Z,100.00
2022-09-04T00:38:55.041Z,100.00
2022-09-04T00:42:02.580Z,100.00
2022-09-04T00:45:28.062Z,100.00
2022-09-04T00:48:37.306Z,100.00
2022-09-04T00:51:23.849Z,100.00
2022-09-04T00:54:37.062Z,100.00
2022-09-04T00:57:48.217Z,100.00
2022-09-04T01:00:36.499Z,100.00
2022-09-04T01:03:32.306Z,100.00
2022-09-04T01:06:50.925Z,100.00
2022-09-04T01:10:13.126Z,100.00
2022-09-04T01:13:39.710Z,100.00
2022-09-04T01:16:37.828Z,100.00
2022-09-04T01:19:36.108Z,100.00
2022-09-04T01:22:54.113Z,100.00
2022-09-04T01:26:18.027Z,100.00
2022-09-04T01:29:13.202Z,100.00
2022-09-04T01:32:17.945Z,100.00
2022-09-04T01:35:33.076Z,100.00
2022-09-04T01:38:22.276Z,100.00
2022-09-04T01:41:24.404Z,100.00
2022-09-04T01:44:12.328Z,100.00
2022-09-04T01:47:15.441Z,100.00
2022-09-04T01:50:10.789Z,100.00
2022-09-04T01:53:03.849Z,100.00
2022-09-04T01:56:04.307Z,100.00
2022-09-04T01:59:11.643Z,100.00
2022-09-04T02:02:13.389Z,100.00
2022-09-04T02:05:08.519Z,100.00
2022-09-04T02:08:13.894Z,100.00
2022-09-04T02:11:28.228Z,100.00
2022-09-04T02:14:24.225Z,100.00
2022-09-04T02:17:18.288Z,100.00
2022-09-04T02:20:21.741Z,100.00
2022-09-04T02:23:51.906Z,100.00
2022-09-04T02:27:00.053Z,100.00
2022-09-04T02:30:00.009Z,100.00
2022-09-04T02:33:18.573Z,100.00
2022-09-04T02:36:35.054Z,100.00
2022-09-04T02:39:42.050Z,100.00
2022-09-04T02:42:55.238Z,100.00
2022-09-04T02:46:02.643Z,100.00
2022-09-04T02:49:07.458Z,100.00
2022-09-04T02:52:18.574Z,100.00
2022-09-04T02:55:32.033Z,100.00
2022-09-04T02:58:36.245Z,100.00
2022-09-04T03:01:28.828Z,100.00
2022-09-04T03:04:31.872Z,100.00
2022-09-04T03:07:31.499Z,100.00
2022-09-04T03:10:20.656Z,100.00
2022-09-04T03:13:22.814Z,100.00
2022-09-04T03:16:53.903Z,100.00
2022-09-04T03:19:57.173Z,100.00
2022-09-04T03:22:58.649Z,100.00
2022-09-04T03:26:04.860Z,100.00
2022-09-04T03:29:10.197Z,100.00
2022-09-04T03:31:58.422Z,100.00
2022-09-04T03:34:56.114Z,100.00
2022-09-04T03:38:20.567Z,100.00
2022-09-04T03:41:13.937Z,100.00
2022-09-04T03:44:08.125Z,100.00
2022-09-04T03:47:05.066Z,100.00
2022-09-04T03:50:09.921Z,100.00
2022-09-04T03:53:09.199Z,100.00
2022-09-04T03:56:02.872Z,100.00
2022-09-04T03:59:02.354Z,100.00
2022-09-04T04:02:14.881Z,100.00
2022-09-04T04:05:36.882Z,100.00
2022-09-04T04:08:27.441Z,100.00
2022-09-04T04:11:29.459Z,100.00
2022-09-04T04:14:59.286Z,100.00
2022-09-04T04:18:13.328Z,100.00
2022-09-04T04:21:05.517Z,100.00
2022-09-04T04:24:09.550Z,100.00
2022-09-04T04:27:25.569Z,100.00
2022-09-04T04:30:16.947Z,100.00
2022-09-04T04:33:28.339Z,100.00
2022-09-04T04:36:45.530Z,100.00
2022-09-04T04:39:56.167Z,100.00
2022-09-04T04:42:48.370Z,100.00
2022-09-04T04:45:51.916Z,100.00
2022-09-04T04:48:57.246Z,100.00
2022-09-04T04:51:55.890Z,100.00
2022-09-04T04:55:13.153Z,100.00
2022-09-04T04:58:05.717Z,100.00
2022-09-04T05:01:21.629Z,100.00
2022-09-04T05:04:42.131Z,100.00
2022-09-04T05:07:46.114Z,100.00
2022-09-04T05:10:43.657Z,100.00
2022-09-04T05:13:56.478Z,100.00
2022-09-04T05:17:04.790Z,100.00
2022-09-04T05:20:00.597Z,100.00
2022-09-04T05:23:09.503Z,100.00
2022-09-04T05:26:33.571Z,100.00
2022-09-04T05:29:32.827Z,100.00
2022-09-04T05:32:39.549Z,100.00
2022-09-04T05:35:35.204Z,100.00
2022-09-04T05:38:46.363Z,100.00
2022-09-04T05:41:57.637Z,100.00
2022-09-04T05:44:52.706Z,100.00
2022-09-04T05:47:54.756Z,100.00
2022-09-04T05:50:53.410Z,100.00
2022-09-04T05:54:17.731Z,100.00
2022-09-04T05:57:41.973Z,100.00
2022-09-04T06:00:37.722Z,100.00
2022-09-04T06:04:02.498Z,100.00
2022-09-04T06:07:07.433Z,100.00
2022-09-04T06:10:08.845Z,100.00
2022-09-04T06:13:17.113Z,100.00
2022-09-04T06:16:39.058Z,100.00
2022-09-04T06:19:34.515Z,100.00
2022-09-04T06:22:48.096Z,100.00
2022-09-04T06:26:01.589Z,100.00
2022-09-04T06:29:05.274Z,100.00
2022-09-04T06:32:00.056Z,100.00
2022-09-04T06:35:09.596Z,100.00
2022-09-04T06:38:20.919Z,100.00
2022-09-04T06:41:22.724Z,100.00
2022-09-04T06:44:28.372Z,100.00
2022-09-04T06:47:30.038Z,100.00
2022-09-04T06:50:36.774Z,100.00
2022-09-04T06:53:29.405Z,100.00
2022-09-04T06:56:34.513Z,100.00
2022-09-04T06:59:47.190Z,100.00
2022-09-04T07:03:09.665Z,100.00
2022-09-04T07:06:04.496Z,100.00
2022-09-04T07:08:50.570Z,100.00
2022-09-04T07:12:13.054Z,100.00
2022-09-04T07:15:21.314Z,100.00
2022-09-04T07:18:41.457Z,100.00
2022-09-04T07:22:03.883Z,100.00
2022-09-04T07:25:05.806Z,100.00
2022-09-04T07:28:10.750Z,100.00
2022-09-04T07:31:04.370Z,100.00
2022-09-04T07:34:09.534Z,100.00
2022-09-04T07:37:27.839Z,100.00
2022-09-04T07:40:23.243Z,100.00
2022-09-04T07:43:30.148Z,100.00
2022-09-04T07:46:34.721Z,100.00
2022-09-04T07:49:43.255Z,100.00
2022-09-04T07:53:03.031Z,100.00
2022-09-04T07:55:58.698Z,100.00
2022-09-04T07:58:50.144Z,100.00
2022-09-04T08:02:00.964Z,100.00
2022-09-04T08:05:13.402Z,100.00
2022-09-04T08:08:09.762Z,100.00
2022-09-04T08:11:22.023Z,100.00
2022-09-04T08:14:19.033Z,100.00
2022-09-04T08:17:27.257Z,100.00
2022-09-04T08:20:38.534Z,100.00
2022-09-04T08:23:38.049Z,100.00
2022-09-04T08:26:43.142Z,100.00
2022-09-04T08:29:45.536Z,100.00
2022-09-04T08:33:10.181Z,100.00
2022-09-04T08:36:40.212Z,100.00
2022-09-04T08:39:34.597Z,100.00
2022-09-04T08:42:39.610Z,100.00
2022-09-04T08:45:44.442Z,100.00
2022-09-04T08:48:32.244Z,100.00
2022-09-04T08:51:40.006Z,100.00
2022-09-04T08:54:32.454Z,100.00
2022-09-04T08:57:58.517Z,100.00
2022-09-04T09:01:01.246Z,100.00
2022-09-04T09:03:57.937Z,100.00
2022-09-04T09:07:33.663Z,100.00
2022-09-04T09:10:47.898Z,98.75
2022-09-04T09:14:02.493Z,100.00
2022-09-04T09:17:02.948Z,100.00
2022-09-04T09:20:00.935Z,100.00
2022-09-04T09:23:26.414Z,100.00
2022-09-04T09:26:31.041Z,95.52
2022-09-04T09:29:29.545Z,97.52
2022-09-04T09:32:56.592Z,93.92
2022-09-04T09:35:57.829Z,96.72
2022-09-04T09:39:07.598Z,90.16
2022-09-04T09:42:21.390Z,93.55
2022-09-04T09:45:46.097Z,93.25
2022-09-04T09:48:47.537Z,91.57
2022-09-04T09:51:52.858Z,92.35
2022-09-04T09:55:17.107Z,86.51
2022-09-04T09:58:54.773Z,87.57
2022-09-04T10:01:54.761Z,84.74
2022-09-04T10:04:59.778Z,77.52
2022-09-04T10:08:01.331Z,77.87
2022-09-04T10:11:18.358Z,80.75
2022-09-04T10:14:27.892Z,81.49
2022-09-04T10:17:32.394Z,84.04
2022-09-04T10:20:30.705Z,76.03
2022-09-04T10:23:29.345Z,73.93
2022-09-04T10:26:15.836Z,69.02
2022-09-04T10:29:14.606Z,71.66
2022-09-04T10:32:19.458Z,75.25
2022-09-04T10:35:20.554Z,76.22
2022-09-04T10:38:38.376Z,73.01
2022-09-04T10:41:36.804Z,70.20
2022-09-04T10:44:41.670Z,68.10
2022-09-04T10:47:54.352Z,64.87
2022-09-04T10:50:54.858Z,65.84
2022-09-04T10:53:49.890Z,63.07
2022-09-04T10:56:54.266Z,62.35
2022-09-04T11:00:11.618Z,66.77
2022-09-04T11:03:11.350Z,65.69
2022-09-04T11:06:08.644Z,70.01
2022-09-04T11:09:02.385Z,70.89
2022-09-04T11:11:58.601Z,68.37
2022-09-04T11:14:56.810Z,68.81
2022-09-04T11:18:01.875Z,67.21
2022-09-04T11:21:14.543Z,69.58
2022-09-04T11:24:13.322Z,61.88
2022-09-04T11:27:15.729Z,62.60
2022-09-04T11:30:06.425Z,61.83
2022-09-04T11:33:04.966Z,66.61
2022-09-04T11:36:12.470Z,63.75
2022-09-04T11:39:32.730Z,60.45
2022-09-04T11:42:32.952Z,63.48
2022-09-04T11:45:32.223Z,57.72
2022-09-04T11:48:21.381Z,56.84
2022-09-04T11:51:17.813Z,58.81
2022-09-04T11:54:30.584Z,59.71
2022-09-04T11:57:44.311Z,61.40
2022-09-04T12:00:58.381Z,58.88
2022-09-04T12:04:06.584Z,57.45
2022-09-04T12:06:52.817Z,59.52
2022-09-04T12:10:09.202Z,57.06
2022-09-04T12:13:14.780Z,58.92
2022-09-04T12:16:42.237Z,60.68
2022-09-04T12:19:52.565Z,58.84
2022-09-04T12:22:54.539Z,57.37
2022-09-04T12:26:02.796Z,64.75
2022-09-04T12:29:20.849Z,59.57
2022-09-04T12:32:28.561Z,63.44
2022-09-04T12:35:43.870Z,52.82
2022-09-04T12:39:02.806Z,57.99
2022-09-04T12:42:12.869Z,59.32
2022-09-04T12:45:17.366Z,57.97
2022-09-04T12:48:33.179Z,52.40
2022-09-04T12:51:23.989Z,59.84
2022-09-04T12:54:37.110Z,60.73
2022-09-04T12:57:46.622Z,55.45
2022-09-04T13:00:48.685Z,54.53
2022-09-04T13:04:01.189Z,57.46
2022-09-04T13:07:20.981Z,59.35
2022-09-04T13:10:48.381Z,55.68
2022-09-04T13:14:07.530Z,51.78
2022-09-04T13:17:12.963Z,51.60
2022-09-04T13:20:38.946Z,48.37
2022-09-04T13:23:35.588Z,52.19
2022-09-04T13:26:37.948Z,53.29
2022-09-04T13:29:30.105Z,54.23
2022-09-04T13:32:22.575Z,49.50
2022-09-04T13:35:39.056Z,53.29
2022-09-04T13:38:48.580Z,52.60
2022-09-04T13:41:45.653Z,51.48
2022-09-04T13:44:56.872Z,44.66
2022-09-04T13:48:07.418Z,47.43
2022-09-04T13:51:01.843Z,54.38
2022-09-04T13:54:09.095Z,51.42
2022-09-04T13:57:04.264Z,52.18
2022-09-04T13:59:50.801Z,50.87
2022-09-04T14:02:39.101Z,52.86
2022-09-04T14:05:28.208Z,52.29
2022-09-04T14:08:21.129Z,51.80
2022-09-04T14:11:26.369Z,51.01
2022-09-04T14:14:33.201Z,52.18
2022-09-04T14:17:28.230Z,48.36
2022-09-04T14:20:45.282Z,47.85
2022-09-04T14:23:37.681Z,51.48
2022-09-04T14:26:33.374Z,52.82
2022-09-04T14:29:36.209Z,52.73
2022-09-04T14:32:28.287Z,48.26
2022-09-04T14:35:46.925Z,53.14
2022-09-04T14:39:09.546Z,53.01
2022-09-04T14:42:42.164Z,53.02
2022-09-04T14:46:15.099Z,49.29
2022-09-04T14:49:16.574Z,53.99
2022-09-04T14:52:16.615Z,55.33
2022-09-04T14:55:02.969Z,55.60
2022-09-04T14:58:08.199Z,55.75
2022-09-04T15:01:08.277Z,49.80
2022-09-04T15:04:19.050Z,49.92
2022-09-04T15:07:49.481Z,55.13
2022-09-04T15:10:47.647Z,57.36
2022-09-04T15:13:46.596Z,58.81
2022-09-04T15:16:39.227Z,57.36
2022-09-04T15:19:57.719Z,59.40
2022-09-04T15:23:01.440Z,56.08
2022-09-04T15:26:02.851Z,55.98
2022-09-04T15:28:54.873Z,55.01
2022-09-04T15:31:43.413Z,58.68
2022-09-04T15:34:30.884Z,56.64
2022-09-04T15:37:25.738Z,58.83
2022-09-04T15:40:24.522Z,56.69
2022-09-04T15:43:17.154Z,56.44
2022-09-04T15:46:09.524Z,58.34
2022-09-04T15:49:15.866Z,57.13
2022-09-04T15:52:22.051Z,57.58
2022-09-04T15:55:33.589Z,57.94
2022-09-04T15:58:29.314Z,58.78
2022-09-04T16:01:21.541Z,58.85
2022-09-04T16:04:23.310Z,56.56
2022-09-04T16:07:20.182Z,58.08
2022-09-04T16:10:15.602Z,56.99
2022-09-04T16:13:09.328Z,54.81
2022-09-04T16:16:12.456Z,56.03
2022-09-04T16:19:08.852Z,57.86
2022-09-04T16:22:22.993Z,57.36
2022-09-04T16:25:19.160Z,56.27
2022-09-04T16:28:19.935Z,57.80
2022-09-04T16:31:12.317Z,58.51
2022-09-04T16:34:05.944Z,57.83
2022-09-04T16:37:01.624Z,55.32
2022-09-04T16:40:21.660Z,52.91
2022-09-04T16:43:29.071Z,57.54
2022-09-04T16:46:29.499Z,60.05
2022-09-04T16:49:25.706Z,61.65
2022-09-04T16:52:36.762Z,59.94
2022-09-04T16:55:27.131Z,63.45
2022-09-04T16:58:19.792Z,63.08
2022-09-04T17:01:22.391Z,61.00
2022-09-04T17:04:40.243Z,62.30
2022-09-04T17:07:37.772Z,66.99
2022-09-04T17:10:36.361Z,69.39
2022-09-04T17:13:48.389Z,72.98
2022-09-04T17:17:22.850Z,73.89
2022-09-04T17:20:22.395Z,74.85
2022-09-04T17:28:55.574Z,67.05
2022-09-04T17:29:11.930Z,73.38
2022-09-04T17:29:51.787Z,76.25
2022-09-04T17:37:06.076Z,79.47
2022-09-04T17:40:51.892Z,84.09
2022-09-04T17:40:57.398Z,81.96
2022-09-04T17:43:23.263Z,85.21
2022-09-04T17:46:28.771Z,87.31
2022-09-04T17:49:26.647Z,88.63
2022-09-04T17:52:24.660Z,90.61
2022-09-04T17:55:13.109Z,92.91
2022-09-04T17:58:09.441Z,93.66
2022-09-04T18:01:15.547Z,96.25
2022-09-04T18:04:22.868Z,96.63
2022-09-04T18:08:09.484Z,99.34
2022-09-04T18:10:57.884Z,98.99
2022-09-04T18:14:23.035Z,99.50
2022-09-04T18:17:21.565Z,100.00
2022-09-04T18:20:19.661Z,96.46
2022-09-04T18:23:26.993Z,100.00
2022-09-04T18:26:22.494Z,99.20
2022-09-04T18:30:03.410Z,98.48
2022-09-04T18:37:08.058Z,99.64
2022-09-04T18:37:26.721Z,100.00
2022-09-04T18:39:24.062Z,100.00
2022-09-04T18:50:25.656Z,100.00
2022-09-04T18:50:48.581Z,100.00
2022-09-04T18:51:03.061Z,100.00
2022-09-04T18:51:58.262Z,100.00
2022-09-04T18:54:50.877Z,100.00
2022-09-04T18:57:49.213Z,100.00
2022-09-04T19:00:43.789Z,100.00
2022-09-04T19:03:47.884Z,100.00
2022-09-04T19:06:38.212Z,100.00
2022-09-04T19:09:30.913Z,100.00
2022-09-04T19:12:35.628Z,100.00
2022-09-04T19:15:37.337Z,100.00
2022-09-04T19:18:43.757Z,100.00
2022-09-04T19:21:58.211Z,100.00
2022-09-04T19:24:53.100Z,100.00
2022-09-04T19:27:44.026Z,100.00
2022-09-04T19:30:43.926Z,100.00
2022-09-04T19:33:44.693Z,100.00
2022-09-04T19:36:47.222Z,100.00
2022-09-04T19:45:54.772Z,100.00
2022-09-04T19:46:04.236Z,100.00
2022-09-04T19:46:52.775Z,100.00
2022-09-04T19:53:12.861Z,100.00
2022-09-04T19:53:24.173Z,100.00
2022-09-04T19:56:54.840Z,100.00
2022-09-04T19:59:57.826Z,100.00
2022-09-04T20:03:07.673Z,100.00
2022-09-04T20:06:21.479Z,100.00
2022-09-04T20:09:33.528Z,100.00
2022-09-04T20:12:42.148Z,100.00
2022-09-04T20:15:31.830Z,100.00
2022-09-04T20:18:26.134Z,100.00
2022-09-04T20:21:32.275Z,100.00
2022-09-04T20:24:24.414Z,100.00
2022-09-04T20:27:42.063Z,100.00
2022-09-04T20:30:30.839Z,100.00
2022-09-04T20:33:26.094Z,100.00
2022-09-04T20:36:15.498Z,100.00
2022-09-04T20:39:12.972Z,100.00
2022-09-04T20:42:04.409Z,100.00
2022-09-04T20:46:44.202Z,100.00
2022-09-04T20:52:57.192Z,100.00
2022-09-04T20:52:59.846Z,100.00
2022-09-04T20:54:47.870Z,100.00
2022-09-04T21:01:16.303Z,100.00
2022-09-04T21:03:08.846Z,100.00
2022-09-04T21:04:42.627Z,100.00
2022-09-04T21:07:44.771Z,100.00
2022-09-04T21:10:37.736Z,100.00
2022-09-04T21:13:29.878Z,100.00
2022-09-04T21:16:43.924Z,100.00
2022-09-04T21:20:05.601Z,100.00
2022-09-04T21:23:16.759Z,100.00
2022-09-04T21:26:28.177Z,100.00
2022-09-04T21:29:42.805Z,100.00
2022-09-04T21:32:45.080Z,100.00
2022-09-04T21:35:50.350Z,100.00
2022-09-04T21:39:19.617Z,100.00
2022-09-04T21:42:23.285Z,100.00
2022-09-04T21:45:38.429Z,100.00
2022-09-04T21:48:48.149Z,100.00
2022-09-04T21:51:51.036Z,100.00
2022-09-04T22:00:36.802Z,100.00
2022-09-04T22:02:37.647Z,100.00
2022-09-04T22:02:45.889Z,100.00
2022-09-04T22:05:09.614Z,100.00
2022-09-04T22:13:27.549Z,100.00
2022-09-04T22:13:41.780Z,100.00
2022-09-04T22:15:16.458Z,100.00
2022-09-04T22:18:25.057Z,100.00
2022-09-04T22:21:26.903Z,100.00
2022-09-04T22:24:30.309Z,100.00
2022-09-04T22:28:09.223Z,100.00
2022-09-04T22:31:16.075Z,100.00
2022-09-04T22:34:18.566Z,100.00
2022-09-04T22:37:29.863Z,100.00
2022-09-04T22:40:35.756Z,100.00
2022-09-04T22:43:49.675Z,100.00
2022-09-04T22:46:52.514Z,100.00
2022-09-04T22:49:57.773Z,100.00
2022-09-04T22:53:12.408Z,100.00
2022-09-04T22:56:23.472Z,100.00
2022-09-04T22:59:26.919Z,100.00
2022-09-04T23:03:04.145Z,100.00
2022-09-04T23:05:50.876Z,100.00
2022-09-04T23:13:49.106Z,100.00
2022-09-04T23:13:50.644Z,100.00
2022-09-04T23:15:59.896Z,100.00
2022-09-04T23:25:56.831Z,100.00
2022-09-04T23:26:45.501Z,100.00
2022-09-04T23:26:59.507Z,100.00
2022-09-04T23:30:05.240Z,100.00
2022-09-04T23:33:27.356Z,100.00
2022-09-04T23:36:47.098Z,100.00
2022-09-04T23:39:44.453Z,100.00
2022-09-04T23:42:56.404Z,100.00
2022-09-04T23:46:13.953Z,100.00
2022-09-04T23:49:37.684Z,100.00
2022-09-04T23:52:49.603Z,100.00
2022-09-04T23:56:10.066Z,100.00
2022-09-04T23:59:38.222Z,100.00
